Time;durP1;ratioP1;P1;durP2;ratioP2;P2;SDS_P1;SDS_P2;PMS_P1;PMS_P2;Temp;Humidity;BMP_temperature;BMP_pressure;BME280_temperature;BME280_humidity;BME280_pressure;Samples;Min_cycle;Max_cycle;Signal;HPM_P1;HPM_P2
2021/12/28 00:00:15;;;;;;;63.10;42.45;;;;;;;6.13;60.64;99588.22;4933817;28;120797;-84
2021/12/28 00:02:44;;;;;;;62.75;41.90;;;;;;;6.23;60.90;99596.44;4950356;28;121657;-82
2021/12/28 00:05:10;;;;;;;60.97;40.97;;;;;;;6.17;60.89;99585.38;4953127;28;119704;-87
2021/12/28 00:07:36;;;;;;;61.88;42.20;;;;;;;6.20;61.25;99594.63;4981342;28;122999;-83
2021/12/28 00:10:05;;;;;;;59.88;40.67;;;;;;;6.25;60.96;99596.75;4968782;28;120294;-84
2021/12/28 00:12:34;;;;;;;60.92;40.70;;;;;;;6.23;60.83;99591.00;4955030;28;119693;-85
2021/12/28 00:15:06;;;;;;;60.72;42.10;;;;;;;6.25;60.77;99585.88;4935267;28;122560;-88
2021/12/28 00:20:18;;;;;;;59.72;40.58;;;;;;;6.30;61.09;99574.38;4968581;28;121965;-87
2021/12/28 00:22:44;;;;;;;64.03;42.22;;;;;;;6.31;61.03;99579.38;4968548;28;121454;-84
2021/12/28 00:25:11;;;;;;;65.35;41.92;;;;;;;6.19;60.60;99552.25;4970859;28;121469;-87
2021/12/28 00:27:38;;;;;;;61.55;40.55;;;;;;;6.28;61.10;99555.00;4972049;28;122108;-84
2021/12/28 00:30:05;;;;;;;60.22;40.35;;;;;;;6.37;60.84;99555.03;4969859;28;119402;-88
2021/12/28 00:32:31;;;;;;;59.55;41.08;;;;;;;6.27;60.89;99537.16;4969258;28;119952;-84
2021/12/28 00:34:57;;;;;;;62.25;41.55;;;;;;;6.25;60.98;99534.13;4953601;28;121756;-85
2021/12/28 00:37:23;;;;;;;62.00;40.55;;;;;;;6.20;60.86;99523.81;4967482;28;120100;-85
2021/12/28 00:39:48;;;;;;;59.28;40.35;;;;;;;6.12;60.99;99512.44;4970209;28;121342;-83
2021/12/28 00:42:14;;;;;;;57.40;38.95;;;;;;;6.30;60.71;99536.25;4983064;28;119805;-87
2021/12/28 00:44:40;;;;;;;57.70;39.42;;;;;;;6.27;60.86;99531.72;4968050;28;119573;-89
2021/12/28 00:47:06;;;;;;;59.17;39.88;;;;;;;6.38;60.86;99549.13;4987514;28;119853;-88
2021/12/28 00:49:32;;;;;;;60.17;39.78;;;;;;;6.27;60.89;99537.16;4972740;28;122517;-86
2021/12/28 00:51:57;;;;;;;63.42;41.30;;;;;;;6.28;60.91;99525.81;4967630;28;122738;-87
2021/12/28 00:54:23;;;;;;;61.63;41.20;;;;;;;6.28;60.88;99522.34;4951714;28;123424;-84
2021/12/28 00:56:49;;;;;;;61.95;40.40;;;;;;;6.25;61.06;99515.06;4935120;28;121071;-86
2021/12/28 00:59:14;;;;;;;57.63;39.03;;;;;;;6.31;60.98;99522.19;4967135;28;119607;-85
2021/12/28 01:01:40;;;;;;;62.42;41.55;;;;;;;6.33;60.98;99521.75;4972214;28;123485;-82
2021/12/28 01:04:06;;;;;;;56.80;39.45;;;;;;;6.35;61.29;99528.25;4970186;28;120567;-82
2021/12/28 01:06:32;;;;;;;57.00;39.55;;;;;;;6.21;61.04;99506.28;4986075;28;119303;-86
2021/12/28 01:08:58;;;;;;;58.67;39.55;;;;;;;6.30;61.09;99515.22;4968789;28;120360;-83
2021/12/28 01:11:24;;;;;;;62.28;40.38;;;;;;;6.38;61.17;99518.41;4957582;28;119741;-87
2021/12/28 01:13:49;;;;;;;61.22;40.38;;;;;;;6.26;61.38;99505.69;4938676;28;122345;-87
2021/12/28 01:16:15;;;;;;;59.50;40.95;;;;;;;6.05;61.10;99480.81;4968743;28;119736;-85
2021/12/28 01:18:41;;;;;;;57.33;38.28;;;;;;;6.19;61.02;99504.00;4967157;28;122577;-85
2021/12/28 01:21:08;;;;;;;56.22;38.92;;;;;;;6.32;61.29;99522.94;4968505;28;122752;-87
2021/12/28 01:23:34;;;;;;;55.10;37.90;;;;;;;6.39;61.16;99537.06;4968462;28;119910;-86
2021/12/28 01:25:59;;;;;;;54.63;39.22;;;;;;;6.34;61.39;99520.53;4938163;28;121603;-86
2021/12/28 01:28:25;;;;;;;56.40;38.75;;;;;;;6.38;61.10;99521.16;4949587;28;122273;-78
2021/12/28 01:30:51;;;;;;;56.53;38.38;;;;;;;6.42;61.53;99525.28;4976980;28;119918;-82
2021/12/28 01:33:16;;;;;;;59.53;39.25;;;;;;;6.38;61.04;99521.91;4970728;28;120827;-82
2021/12/28 01:35:42;;;;;;;59.65;38.97;;;;;;;6.28;61.23;99500.56;4983310;28;120856;-86
2021/12/28 01:38:08;;;;;;;57.70;38.00;;;;;;;6.43;61.08;99523.31;4968892;28;121848;-84
2021/12/28 01:40:37;;;;;;;58.80;38.85;;;;;;;6.43;61.33;99517.84;4968655;28;119959;-84
2021/12/28 01:43:10;;;;;;;53.40;37.45;;;;;;;6.47;61.03;99529.38;4984168;28;119378;-85
2021/12/28 01:45:51;;;;;;;56.00;38.10;;;;;;;6.46;61.31;99522.41;4950478;28;121943;-86
2021/12/28 01:48:21;;;;;;;57.42;39.17;;;;;;;6.39;61.19;99512.56;4983989;28;120658;-84
2021/12/28 01:50:48;;;;;;;59.55;39.15;;;;;;;6.47;61.52;99524.66;4982384;28;119566;-87
2021/12/28 01:53:15;;;;;;;55.42;37.38;;;;;;;6.50;61.36;99514.09;4957273;28;122078;-83
2021/12/28 01:55:43;;;;;;;56.97;38.42;;;;;;;6.52;61.42;99520.59;4937311;28;120123;-84
2021/12/28 01:58:09;;;;;;;54.13;38.67;;;;;;;6.51;61.40;99513.63;4951805;28;122435;-84
2021/12/28 02:00:35;;;;;;;56.35;38.83;;;;;;;6.47;61.19;99507.56;4965547;28;122654;-83
2021/12/28 02:03:13;;;;;;;58.22;38.75;;;;;;;6.54;61.57;99511.97;4968809;28;119837;-87
2021/12/28 02:05:39;;;;;;;58.72;39.42;;;;;;;6.49;61.64;99498.94;4968483;28;121442;-86
2021/12/28 02:08:06;;;;;;;51.67;37.25;;;;;;;6.59;61.70;99503.19;4936206;28;122211;-86
2021/12/28 02:10:33;;;;;;;55.22;37.15;;;;;;;6.60;61.06;99502.00;4953549;28;121479;-87
2021/12/28 02:12:58;;;;;;;54.53;37.40;;;;;;;6.49;60.94;99477.91;4968565;28;121820;-84
2021/12/28 02:15:24;;;;;;;51.72;37.08;;;;;;;6.56;61.35;99487.75;4954579;28;122429;-85
2021/12/28 02:17:50;;;;;;;54.67;38.47;;;;;;;6.59;61.36;99484.13;4950646;28;121147;-88
2021/12/28 02:20:19;;;;;;;57.42;38.47;;;;;;;6.56;61.15;99483.06;4980447;28;120439;-85
2021/12/28 02:22:45;;;;;;;56.75;39.08;;;;;;;6.59;61.46;99482.16;4964439;28;120916;-84
2021/12/28 02:25:12;;;;;;;56.42;38.35;;;;;;;6.59;61.51;99484.13;4958282;28;121807;-86
2021/12/28 02:27:39;;;;;;;56.60;37.58;;;;;;;6.65;61.19;99476.88;4968232;28;123043;-87
2021/12/28 02:30:08;;;;;;;55.55;38.10;;;;;;;6.54;61.60;99466.41;4969921;28;119747;-87
2021/12/28 02:32:34;;;;;;;56.03;37.60;;;;;;;6.62;61.29;99469.59;4951008;28;122135;-85
2021/12/28 02:35:00;;;;;;;58.63;38.58;;;;;;;6.63;61.42;99463.72;4967225;28;122641;-83
2021/12/28 02:37:26;;;;;;;55.33;38.33;;;;;;;6.52;61.63;99436.16;4956137;28;119756;-88
2021/12/28 02:39:52;;;;;;;54.28;36.60;;;;;;;6.67;61.67;99460.84;4954075;28;123730;-84
2021/12/28 02:42:20;;;;;;;54.72;38.20;;;;;;;6.68;61.58;99460.38;4971770;28;119588;-80
2021/12/28 02:44:58;;;;;;;51.80;37.55;;;;;;;6.70;61.36;99459.94;4970936;28;122177;-84
2021/12/28 02:47:23;;;;;;;55.08;37.50;;;;;;;6.62;61.58;99432.22;4955109;28;122749;-83
2021/12/28 02:49:49;;;;;;;54.53;37.60;;;;;;;6.58;61.57;99428.88;4956533;28;119613;-87
2021/12/28 02:52:15;;;;;;;57.38;38.80;;;;;;;6.69;61.29;99444.81;4969127;28;122345;-86
2021/12/28 02:54:40;;;;;;;56.88;37.70;;;;;;;6.56;61.63;99428.56;4970899;28;122877;-85
2021/12/28 02:57:06;;;;;;;53.78;37.80;;;;;;;6.67;61.15;99442.53;4972160;28;119685;-89
2021/12/28 02:59:32;;;;;;;55.30;37.50;;;;;;;6.60;61.42;99423.72;4974385;28;121981;-84
2021/12/28 03:01:57;;;;;;;56.25;37.08;;;;;;;6.62;61.44;99429.47;4963231;28;121015;-86
2021/12/28 03:04:27;;;;;;;52.08;36.80;;;;;;;6.60;61.42;99423.72;4988382;28;120290;-86
2021/12/28 03:06:54;;;;;;;55.75;38.30;;;;;;;6.58;61.46;99415.25;4954274;28;122937;-83
2021/12/28 03:09:21;;;;;;;58.30;38.28;;;;;;;6.57;61.59;99408.28;4971087;28;122228;-85
2021/12/28 03:11:47;;;;;;;58.00;38.63;;;;;;;6.60;61.32;99412.84;4970096;28;121951;-86
2021/12/28 03:14:13;;;;;;;57.33;38.30;;;;;;;6.53;61.57;99407.69;4964845;28;123345;-86
2021/12/28 03:16:38;;;;;;;55.58;38.60;;;;;;;6.49;61.55;99401.66;4988132;28;119596;-88
2021/12/28 03:19:04;;;;;;;53.85;37.70;;;;;;;6.38;61.58;99384.97;4955130;28;122382;-89
2021/12/28 03:21:31;;;;;;;57.42;38.65;;;;;;;6.38;61.92;99393.13;4972087;28;120005;-88
2021/12/28 03:23:57;;;;;;;54.20;37.70;;;;;;;6.46;62.17;99397.84;4986147;28;119364;-86
2021/12/28 03:26:24;;;;;;;56.85;38.78;;;;;;;6.50;62.22;99403.16;4931591;28;122524;-87
2021/12/28 03:28:50;;;;;;;54.83;38.30;;;;;;;6.41;62.04;99390.28;4969631;28;120281;-89
2021/12/28 03:31:20;;;;;;;56.88;39.05;;;;;;;6.41;62.12;99389.53;4938047;28;122669;-84
2021/12/28 03:33:50;;;;;;;55.85;38.65;;;;;;;6.57;62.12;99413.00;4968440;28;120928;-85
2021/12/28 03:36:17;;;;;;;54.53;37.53;;;;;;;6.52;61.74;99408.16;4952051;28;119855;-87
2021/12/28 03:38:44;;;;;;;57.55;38.08;;;;;;;6.58;61.94;99412.53;4966468;28;121727;-84
2021/12/28 03:41:10;;;;;;;54.15;37.88;;;;;;;6.62;61.87;99409.66;4983796;28;123052;-85
2021/12/28 03:43:39;;;;;;;54.92;37.92;;;;;;;6.37;61.91;99376.03;4973810;28;119830;-87
2021/12/28 03:46:06;;;;;;;55.28;37.80;;;;;;;6.65;61.96;99409.53;4968362;28;122753;-84
2021/12/28 03:48:32;;;;;;;54.22;37.03;;;;;;;6.68;61.93;99400.44;4970151;28;120083;-83
2021/12/28 03:50:58;;;;;;;52.72;37.22;;;;;;;6.58;61.76;99377.13;4953647;28;122319;-86
2021/12/28 03:53:24;;;;;;;56.25;39.20;;;;;;;6.63;61.43;99376.53;4952639;28;123349;-86
2021/12/28 03:55:50;;;;;;;52.08;37.13;;;;;;;6.59;61.37;99367.72;4939106;28;119920;-85
2021/12/28 03:58:15;;;;;;;54.28;37.75;;;;;;;6.63;61.20;99360.19;4953316;28;122275;-87
2021/12/28 04:00:44;;;;;;;57.65;38.95;;;;;;;6.65;61.26;99360.50;4952479;28;123303;-83
2021/12/28 04:03:11;;;;;;;57.22;38.22;;;;;;;6.56;61.15;99344.13;4970326;28;120722;-87
2021/12/28 04:05:37;;;;;;;55.05;37.55;;;;;;;6.46;61.31;99332.50;4982575;28;120035;-88
2021/12/28 04:08:04;;;;;;;55.75;38.63;;;;;;;6.68;61.17;99367.75;4966787;28;121645;-89
2021/12/28 04:10:33;;;;;;;57.97;38.35;;;;;;;6.67;61.30;99362.75;4982400;28;122244;-83
2021/12/28 04:12:59;;;;;;;57.50;38.58;;;;;;;6.36;61.58;99336.41;4967761;28;122704;-83
2021/12/28 04:15:25;;;;;;;55.22;37.15;;;;;;;6.54;61.43;99349.28;4967619;28;119841;-83
2021/12/28 04:17:51;;;;;;;56.97;38.63;;;;;;;6.65;61.70;99376.84;4967763;28;122177;-85
2021/12/28 04:20:20;;;;;;;57.47;37.60;;;;;;;6.67;61.23;99377.13;4968664;28;123206;-85
2021/12/28 04:22:46;;;;;;;53.72;36.42;;;;;;;6.68;61.53;99381.38;4961723;28;120403;-87
2021/12/28 04:25:14;;;;;;;53.80;37.25;;;;;;;6.68;61.25;99370.47;4971964;28;120524;-85
2021/12/28 04:27:41;;;;;;;56.50;37.33;;;;;;;6.62;61.36;99366.81;4952741;28;119501;-84
2021/12/28 04:30:08;;;;;;;54.88;36.47;;;;;;;6.58;61.59;99349.88;4968202;28;121247;-85
2021/12/28 04:32:34;;;;;;;53.97;37.55;;;;;;;6.65;61.46;99360.50;4969817;28;122773;-88
2021/12/28 04:35:00;;;;;;;53.58;36.20;;;;;;;6.67;61.25;99349.13;4967613;28;119882;-88
2021/12/28 04:37:26;;;;;;;54.08;36.25;;;;;;;6.73;61.73;99350.78;4954254;28;121124;-88
2021/12/28 04:39:52;;;;;;;51.97;36.55;;;;;;;6.69;61.50;99346.72;4969785;28;123022;-86
2021/12/28 04:42:17;;;;;;;55.80;37.40;;;;;;;6.66;61.13;99331.28;4971735;28;119935;-87
2021/12/28 04:44:43;;;;;;;54.35;36.03;;;;;;;6.68;61.56;99337.78;4967254;28;119985;-83
2021/12/28 04:47:09;;;;;;;57.72;37.33;;;;;;;6.74;61.43;99346.84;4961754;28;122584;-86
2021/12/28 04:49:34;;;;;;;52.25;36.28;;;;;;;6.73;61.75;99344.56;4954964;28;122269;-86
2021/12/28 04:52:01;;;;;;;50.08;34.88;;;;;;;6.65;61.62;99319.63;4969808;28;122203;-86
2021/12/28 04:54:27;;;;;;;51.58;35.35;;;;;;;6.78;61.65;99339.25;4953267;28;119430;-85
2021/12/28 04:56:52;;;;;;;52.58;35.58;;;;;;;6.64;61.60;99309.94;4986200;28;119694;-84
2021/12/28 04:59:18;;;;;;;52.55;36.35;;;;;;;6.80;61.52;99338.81;4969317;28;123416;-82
2021/12/28 05:01:47;;;;;;;52.17;36.33;;;;;;;6.75;61.42;99323.84;4982291;28;119737;-88
2021/12/28 05:04:13;;;;;;;52.20;36.63;;;;;;;6.84;61.59;99333.19;4948983;28;122981;-88
2021/12/28 05:06:39;;;;;;;52.38;35.53;;;;;;;6.85;61.45;99329.25;4971498;28;120315;-86
2021/12/28 05:09:07;;;;;;;53.80;36.00;;;;;;;6.46;61.48;99264.41;4956011;28;120898;-87
2021/12/28 05:11:34;;;;;;;53.92;37.53;;;;;;;6.78;61.68;99309.28;4981629;28;119767;-85
2021/12/28 05:14:04;;;;;;;53.92;36.17;;;;;;;6.82;61.34;99308.38;4964636;28;119888;-87
2021/12/28 05:16:33;;;;;;;51.20;34.88;;;;;;;6.73;61.31;99306.44;4970539;28;121611;-84
2021/12/28 05:19:00;;;;;;;52.00;35.90;;;;;;;6.84;61.19;99316.84;4982724;28;125578;-85
2021/12/28 05:21:25;;;;;;;52.38;35.65;;;;;;;6.75;61.57;99304.00;4969638;28;119577;-85
2021/12/28 05:23:51;;;;;;;49.10;35.38;;;;;;;6.78;61.28;99309.28;4953767;28;122947;-87
2021/12/28 05:26:17;;;;;;;53.72;35.58;;;;;;;6.88;61.45;99320.19;4967137;28;120424;-85
2021/12/28 05:28:43;;;;;;;52.13;36.03;;;;;;;6.90;61.42;99312.31;4987580;28;119632;-85
2021/12/28 05:31:09;;;;;;;56.53;36.60;;;;;;;6.83;61.55;99291.56;4939081;28;121164;-84
2021/12/28 05:33:34;;;;;;;52.92;35.45;;;;;;;6.86;61.33;99295.34;4967739;28;119504;-81
2021/12/28 05:36:00;;;;;;;52.28;35.75;;;;;;;6.90;61.46;99290.50;4966867;28;121700;-87
2021/12/28 05:38:25;;;;;;;52.55;35.90;;;;;;;6.81;61.04;99279.59;4985720;28;119633;-87
2021/12/28 05:40:51;;;;;;;51.88;36.10;;;;;;;6.84;61.66;99286.88;4932106;28;120448;-82
2021/12/28 05:43:17;;;;;;;54.75;34.90;;;;;;;6.88;61.17;99290.97;4953180;28;121626;-87
2021/12/28 05:45:44;;;;;;;54.15;36.03;;;;;;;6.90;61.09;99294.00;4967922;28;119685;-86
2021/12/28 05:48:10;;;;;;;50.50;35.70;;;;;;;6.89;61.07;99289.00;4961674;28;119558;-84
2021/12/28 05:50:37;;;;;;;56.13;36.58;;;;;;;6.84;61.17;99284.13;4967703;28;122128;-84
2021/12/28 05:53:03;;;;;;;57.08;38.03;;;;;;;6.85;61.00;99291.84;4963909;28;120341;-84
2021/12/28 05:55:32;;;;;;;52.15;35.60;;;;;;;6.84;61.21;99289.59;4935992;28;122099;-85
2021/12/28 05:57:58;;;;;;;55.72;36.35;;;;;;;6.85;61.13;99280.94;4967103;28;121181;-86
2021/12/28 06:00:24;;;;;;;54.63;36.33;;;;;;;6.98;61.18;99295.16;4984543;28;120354;-88
2021/12/28 06:02:50;;;;;;;52.47;35.53;;;;;;;6.75;61.35;99263.88;4963327;28;122106;-87
2021/12/28 06:05:16;;;;;;;53.85;37.10;;;;;;;6.98;61.34;99288.97;4952645;28;120073;-87
2021/12/28 06:07:41;;;;;;;52.05;36.17;;;;;;;6.96;61.42;99277.75;4953236;28;120714;-88
2021/12/28 06:10:08;;;;;;;52.72;37.47;;;;;;;6.96;61.35;99275.03;4965218;28;120092;-84
2021/12/28 06:12:34;;;;;;;53.63;37.13;;;;;;;6.94;61.15;99275.50;4985171;28;123302;-88
2021/12/28 06:14:59;;;;;;;56.13;39.45;;;;;;;6.96;61.32;99270.34;4972541;28;121968;-86
2021/12/28 06:17:25;;;;;;;57.30;38.15;;;;;;;7.03;61.07;99280.91;4986916;28;119694;-85
2021/12/28 06:19:50;;;;;;;53.97;36.72;;;;;;;6.90;61.46;99255.06;4940376;28;119710;-85
2021/12/28 06:22:16;;;;;;;53.40;35.65;;;;;;;7.00;60.87;99259.25;4980764;28;122532;-86
2021/12/28 06:24:42;;;;;;;54.53;36.90;;;;;;;7.01;61.10;99263.50;4967696;28;122775;-86
2021/12/28 06:27:08;;;;;;;57.40;37.75;;;;;;;6.97;61.44;99260.19;4970880;28;119936;-83
2021/12/28 06:29:33;;;;;;;57.33;38.47;;;;;;;6.97;61.24;99257.47;4969217;28;121317;-84
2021/12/28 06:31:59;;;;;;;54.50;37.88;;;;;;;6.98;61.09;99256.25;4968792;28;120166;-81
2021/12/28 06:34:25;;;;;;;54.65;36.47;;;;;;;6.88;61.37;99230.25;4967174;28;119533;-85
2021/12/28 06:36:50;;;;;;;54.92;37.53;;;;;;;6.92;61.29;99237.03;4971782;28;121423;-87
2021/12/28 06:39:16;;;;;;;58.40;38.92;;;;;;;6.88;61.23;99224.81;4987270;28;119607;-87
2021/12/28 06:41:42;;;;;;;57.80;38.33;;;;;;;6.98;61.24;99239.88;4985703;28;122112;-81
2021/12/28 06:44:10;;;;;;;56.67;38.42;;;;;;;6.93;61.45;99237.78;4972819;28;122688;-84
2021/12/28 06:46:37;;;;;;;57.08;36.72;;;;;;;6.89;61.49;99231.75;4968857;28;120326;-82
2021/12/28 06:49:03;;;;;;;57.92;38.92;;;;;;;6.98;61.63;99248.06;4952991;28;121668;-85
2021/12/28 06:51:29;;;;;;;58.25;39.67;;;;;;;6.95;61.19;99241.56;4955998;28;123770;-86
2021/12/28 06:53:55;;;;;;;55.63;38.08;;;;;;;6.97;61.46;99247.31;4964338;28;119876;-84
2021/12/28 06:56:21;;;;;;;57.88;38.90;;;;;;;6.93;61.34;99245.97;4938730;28;121576;-84
2021/12/28 06:58:46;;;;;;;58.28;39.10;;;;;;;6.94;61.40;99250.97;4954700;28;119859;-82
2021/12/28 07:01:12;;;;;;;56.20;38.72;;;;;;;6.86;61.77;99235.38;4953183;28;122617;-83
2021/12/28 07:03:38;;;;;;;56.60;39.88;;;;;;;6.88;61.34;99246.59;4968215;28;122942;-82
2021/12/28 07:06:04;;;;;;;56.65;38.80;;;;;;;6.96;61.13;99253.22;4969756;28;119613;-83
2021/12/28 07:08:29;;;;;;;57.65;38.83;;;;;;;6.92;61.55;99252.63;4968545;28;122854;-83
2021/12/28 07:10:55;;;;;;;57.45;39.05;;;;;;;6.89;61.48;99253.56;4966598;28;123130;-83
2021/12/28 07:13:21;;;;;;;62.15;39.80;;;;;;;6.86;61.44;99252.50;4953542;28;119449;-85
2021/12/28 07:15:47;;;;;;;59.47;39.13;;;;;;;6.91;61.42;99267.47;4953032;28;121266;-84
2021/12/28 07:18:12;;;;;;;56.72;39.40;;;;;;;6.83;61.41;99250.69;4973289;28;122628;-83
2021/12/28 07:20:38;;;;;;;62.78;40.03;;;;;;;6.92;61.73;99250.66;4953223;28;122436;-84
2021/12/28 07:23:06;;;;;;;61.17;40.15;;;;;;;6.91;61.43;99248.41;4951776;28;122406;-85
2021/12/28 07:25:32;;;;;;;59.00;39.22;;;;;;;6.85;61.41;99236.59;4984291;28;119429;-83
2021/12/28 07:27:58;;;;;;;61.22;40.10;;;;;;;6.92;60.88;99237.03;4981705;28;119714;-83
2021/12/28 07:30:23;;;;;;;59.53;39.50;;;;;;;6.90;61.16;99228.56;4951428;28;121436;-85
2021/12/28 07:32:49;;;;;;;58.30;40.28;;;;;;;6.84;61.55;99221.47;4952833;28;120348;-83
2021/12/28 07:35:15;;;;;;;59.58;40.47;;;;;;;6.89;61.62;99235.25;4966605;28;122162;-84
2021/12/28 07:37:41;;;;;;;59.05;40.05;;;;;;;6.88;61.48;99235.69;4969268;28;119661;-82
2021/12/28 07:40:07;;;;;;;61.17;40.35;;;;;;;6.90;61.82;99238.72;4974853;28;119654;-82
2021/12/28 07:42:35;;;;;;;61.55;41.72;;;;;;;6.77;61.67;99208.91;4971393;28;119955;-81
2021/12/28 07:45:03;;;;;;;61.70;40.80;;;;;;;6.83;61.86;99230.84;4954421;28;119525;-82
2021/12/28 07:47:28;;;;;;;60.35;40.22;;;;;;;6.80;61.88;99227.06;4965994;28;121018;-79
2021/12/28 07:49:54;;;;;;;63.55;42.17;;;;;;;6.85;61.52;99245.53;4988145;28;119880;-84
2021/12/28 07:52:19;;;;;;;63.85;43.60;;;;;;;6.84;61.81;99235.09;4953557;28;120652;-85
2021/12/28 07:54:45;;;;;;;65.00;42.05;;;;;;;6.78;61.84;99227.53;4987224;28;119417;-84
2021/12/28 07:57:11;;;;;;;64.75;43.55;;;;;;;6.88;62.25;99247.34;4971145;28;122868;-79
2021/12/28 07:59:36;;;;;;;63.80;42.40;;;;;;;6.82;61.97;99234.78;4958683;28;119613;-83
2021/12/28 08:02:02;;;;;;;63.08;41.88;;;;;;;6.91;61.97;99251.13;4970253;28;121496;-84
2021/12/28 08:04:28;;;;;;;79.35;43.42;;;;;;;6.88;61.86;99232.97;4972847;28;120831;-80
2021/12/28 08:06:55;;;;;;;61.10;40.88;;;;;;;6.81;61.94;99227.84;4962648;28;121976;-79
2021/12/28 08:09:20;;;;;;;62.30;43.17;;;;;;;6.85;62.25;99236.59;4952119;28;122446;-84
2021/12/28 08:11:46;;;;;;;63.78;42.67;;;;;;;6.77;62.24;99217.84;4968101;28;120499;-82
2021/12/28 08:14:12;;;;;;;65.25;42.47;;;;;;;6.91;62.33;99229.31;4972259;28;121540;-80
2021/12/28 08:16:37;;;;;;;62.03;42.55;;;;;;;6.89;62.17;99221.59;4954315;28;121048;-85
2021/12/28 08:19:04;;;;;;;68.15;43.70;;;;;;;6.87;62.58;99217.84;4982871;28;119936;-86
2021/12/28 08:21:30;;;;;;;63.45;43.60;;;;;;;6.95;62.77;99224.47;4988467;28;119407;-82
2021/12/28 08:23:56;;;;;;;65.45;43.42;;;;;;;6.92;62.55;99225.38;4950148;28;120315;-82
2021/12/28 08:26:22;;;;;;;67.32;43.67;;;;;;;6.95;62.56;99225.22;4966783;28;119956;-85
2021/12/28 08:28:47;;;;;;;70.90;43.90;;;;;;;6.92;62.93;99215.25;4942772;28;123267;-83
2021/12/28 08:31:13;;;;;;;65.57;43.95;;;;;;;6.95;62.91;99225.22;4969563;28;120198;-84
2021/12/28 08:33:39;;;;;;;64.85;42.58;;;;;;;6.95;62.88;99219.75;4964547;28;122094;-81
2021/12/28 08:36:05;;;;;;;68.53;43.83;;;;;;;6.66;62.63;99173.25;4949054;28;123363;-84
2021/12/28 08:38:30;;;;;;;68.32;44.25;;;;;;;6.89;63.02;99199.06;4952661;28;120476;-83
2021/12/28 08:40:57;;;;;;;65.85;44.83;;;;;;;6.95;63.32;99208.09;4981687;28;120300;-84
2021/12/28 08:43:24;;;;;;;60.28;42.20;;;;;;;6.83;62.97;99190.72;4972420;28;123139;-85
2021/12/28 08:45:49;;;;;;;67.82;44.35;;;;;;;6.93;63.08;99199.63;4949301;28;121971;-85
2021/12/28 08:48:15;;;;;;;64.22;42.05;;;;;;;6.75;63.43;99171.22;4949883;28;122597;-82
2021/12/28 08:50:42;;;;;;;68.22;45.05;;;;;;;6.89;63.10;99180.72;4964057;28;122191;-84
2021/12/28 08:53:10;;;;;;;64.55;43.03;;;;;;;6.88;63.08;99189.38;4979987;28;122179;-83
2021/12/28 08:55:36;;;;;;;69.53;43.75;;;;;;;6.87;63.01;99177.72;4964342;28;123018;-84
2021/12/28 08:58:02;;;;;;;66.15;44.95;;;;;;;6.94;62.92;99190.25;4969260;28;119820;-86
2021/12/28 09:00:32;;;;;;;63.30;42.83;;;;;;;6.92;63.29;99187.22;4960432;28;120254;-83
2021/12/28 09:02:58;;;;;;;65.35;43.60;;;;;;;6.91;63.32;99177.53;4964502;28;119688;-82
2021/12/28 09:05:26;;;;;;;63.95;44.58;;;;;;;6.84;63.13;99180.56;4939942;28;120131;-84
2021/12/28 09:07:53;;;;;;;64.88;43.65;;;;;;;6.76;62.84;99177.44;4965000;28;121750;-87
2021/12/28 09:10:19;;;;;;;64.53;44.50;;;;;;;6.68;63.75;99168.09;4965368;28;119965;-83
2021/12/28 09:12:44;;;;;;;66.30;43.80;;;;;;;6.85;63.51;99195.72;4967545;28;120841;-84
2021/12/28 09:15:11;;;;;;;69.22;44.95;;;;;;;6.84;63.47;99188.75;4947862;28;121763;-85
2021/12/28 09:17:39;;;;;;;69.68;44.78;;;;;;;6.85;63.22;99199.19;4968371;28;119539;-83
2021/12/28 09:20:08;;;;;;;63.67;44.13;;;;;;;6.82;63.55;99178.31;4966828;28;122123;-84
2021/12/28 09:22:34;;;;;;;67.72;44.72;;;;;;;6.88;63.36;99192.84;4948957;28;122537;-82
2021/12/28 09:25:03;;;;;;;68.78;46.33;;;;;;;6.98;63.68;99185.38;4966720;28;120187;-84
2021/12/28 09:27:28;;;;;;;71.05;46.20;;;;;;;6.85;63.26;99154.84;4935054;28;121391;-81
2021/12/28 09:29:54;;;;;;;67.57;45.33;;;;;;;6.95;63.57;99159.78;4964249;28;120251;-85
2021/12/28 09:32:20;;;;;;;68.80;45.30;;;;;;;6.96;63.16;99160.56;4963481;28;124325;-83
2021/12/28 09:34:49;;;;;;;69.65;44.67;;;;;;;7.08;63.06;99170.47;4944547;28;124538;-83
2021/12/28 09:37:15;;;;;;;65.00;44.15;;;;;;;7.08;62.95;99173.19;4955072;28;122587;-86
2021/12/28 09:39:40;;;;;;;67.47;44.20;;;;;;;7.14;62.55;99165.16;4951455;28;119686;-83
2021/12/28 09:42:07;;;;;;;65.78;44.58;;;;;;;7.19;62.79;99173.44;4945885;28;122765;-84
2021/12/28 09:44:34;;;;;;;67.18;45.00;;;;;;;7.29;62.99;99176.88;4943843;28;119396;-84
2021/12/28 09:47:02;;;;;;;73.53;45.75;;;;;;;7.30;62.37;99168.22;4947781;28;122294;-82
2021/12/28 09:49:28;;;;;;;69.53;45.30;;;;;;;7.27;62.61;99163.69;4986633;28;119686;-83
2021/12/28 09:51:55;;;;;;;71.20;45.88;;;;;;;7.20;62.29;99149.66;4960920;28;121886;-86
2021/12/28 09:54:26;;;;;;;66.95;43.25;;;;;;;7.37;62.57;99161.69;4946747;28;122905;-86
2021/12/28 09:56:55;;;;;;;66.95;44.33;;;;;;;7.38;62.09;99158.50;4933613;28;120363;-82
2021/12/28 09:59:21;;;;;;;72.40;45.60;;;;;;;7.27;62.71;99146.59;4963004;28;122578;-84
2021/12/28 10:01:47;;;;;;;68.85;45.20;;;;;;;7.36;61.87;99152.75;4963657;28;119985;-85
2021/12/28 10:04:13;;;;;;;65.75;46.15;;;;;;;7.29;62.37;99149.59;4966843;28;119626;-84
2021/12/28 10:06:39;;;;;;;71.70;47.25;;;;;;;7.23;62.44;99138.56;4962140;28;121311;-83
2021/12/28 10:09:25;;;;;;;70.78;47.50;;;;;;;7.35;62.72;99153.97;4966558;28;123506;-85
2021/12/28 10:11:54;;;;;;;71.53;44.20;;;;;;;7.26;62.88;99134.91;4945519;28;121836;-81
2021/12/28 10:14:23;;;;;;;76.70;47.17;;;;;;;7.34;62.58;99138.06;4931822;28;122754;-84
2021/12/28 10:17:12;;;;;;;73.60;45.58;;;;;;;7.40;62.20;99138.94;4961088;28;119811;-83
2021/12/28 10:19:44;;;;;;;70.32;45.55;;;;;;;7.33;62.33;99123.69;4930512;28;121820;-82
2021/12/28 10:22:31;;;;;;;72.85;45.70;;;;;;;7.40;62.67;99138.94;4961787;28;122744;-82
2021/12/28 10:25:12;;;;;;;74.40;45.53;;;;;;;7.41;62.23;99134.22;4963709;28;119506;-86
2021/12/28 10:27:57;;;;;;;74.50;47.58;;;;;;;7.37;62.21;99116.06;4948321;28;121071;-84
2021/12/28 10:30:27;;;;;;;74.35;47.28;;;;;;;7.45;62.21;99129.34;4966177;28;122039;-82
2021/12/28 10:32:56;;;;;;;72.78;45.42;;;;;;;7.47;62.44;99121.44;4971337;28;119876;-84
2021/12/28 10:35:25;;;;;;;77.35;46.80;;;;;;;7.45;62.86;99112.97;4978025;28;120513;-82
2021/12/28 10:37:55;;;;;;;76.82;46.35;;;;;;;7.39;62.46;99099.25;4966696;28;119591;-83
2021/12/28 10:40:31;;;;;;;71.13;46.13;;;;;;;7.46;62.63;99098.13;4950201;28;121859;-84
2021/12/28 10:43:06;;;;;;;78.85;46.90;;;;;;;7.52;62.76;99118.81;4946540;28;122663;-83
2021/12/28 10:45:59;;;;;;;69.93;44.67;;;;;;;7.54;62.25;99108.19;4950084;28;120261;-86
2021/12/28 10:48:37;;;;;;;76.45;46.45;;;;;;;7.58;62.69;99108.03;4966590;28;122674;-82
2021/12/28 10:51:09;;;;;;;74.47;45.42;;;;;;;7.57;61.83;99109.22;4978284;28;121163;-84
2021/12/28 10:53:52;;;;;;;68.90;45.85;;;;;;;7.48;62.40;99095.69;4948630;28;120180;-82
2021/12/28 10:56:17;;;;;;;72.63;45.75;;;;;;;7.49;62.19;99099.91;4965584;28;122938;-83
2021/12/28 10:58:46;;;;;;;74.57;45.53;;;;;;;7.56;62.75;99100.28;4979575;28;119855;-81
2021/12/28 11:01:18;;;;;;;70.88;44.25;;;;;;;7.55;62.17;99098.78;4984140;28;119864;-85
2021/12/28 11:03:47;;;;;;;74.10;45.33;;;;;;;7.64;62.01;99104.19;4958394;28;123576;-84
2021/12/28 11:06:22;;;;;;;73.10;45.22;;;;;;;7.60;62.13;99086.50;4949709;28;120344;-82
2021/12/28 11:08:52;;;;;;;73.72;45.85;;;;;;;7.68;61.92;99101.25;4978060;28;119721;-80
2021/12/28 11:11:21;;;;;;;71.47;44.50;;;;;;;7.64;61.83;99095.25;4960755;28;122889;-82
2021/12/28 11:13:48;;;;;;;71.97;44.85;;;;;;;7.66;61.92;99092.81;4967450;28;120366;-84
2021/12/28 11:16:18;;;;;;;69.68;44.92;;;;;;;7.74;61.65;99096.66;4967887;28;121957;-85
2021/12/28 11:18:47;;;;;;;68.15;45.38;;;;;;;7.74;61.53;99102.13;4954549;28;122771;-83